Portada
METAR-TAF:

METAR-TAF

Aeroports :

Galesburg Municipal Airport

Galesburg, Illinois, Estats Units d'Amèrica

latitud: 40-56-17N, longitud: 090-25-52W, altitud: 233 m

Observació

L'informe es va fer fa 31 minuts, a les 13:35 UTC
Vent 5 kt del Oest
Temperatura 1°C
Humitat 93%
Pressió 1012 hPa
Visibilitat: 16.1 km
Cel cobert a una alçada de 1100 ft

METAR: KGBG 181335Z AUTO 28005KT 10SM OVC011 01/00 A2987 RMK AO2 T00140001

Hora: 08:06 (14:06 UTC)


TAF: manca

Observacions i pronòstics meteorològics de més de 4000 aeroports (METAR i TAF).

Les estacions disponibles són els punts grocs i vermells al mapa.

Posi el ratolí al punt desitjat per veure el nom de l'estació.

Feu clic per veure les observacions i els pronòstics meteorològics.

Per canviar el mapa: feu clic els botons verds amb una creu de color negre per apropar; al botó verd amb un guió per allunyar la imatge; o en les fletxes verdes per a mapes adjacents.


METAR-TAF: